createdAt,value
2018-09-20T00:00:11.490Z,52.53
2018-09-20T00:02:41.342Z,53.05
2018-09-20T00:05:11.206Z,53.06
2018-09-20T00:07:41.053Z,52.85
2018-09-20T00:10:10.642Z,53.11
2018-09-20T00:12:40.345Z,53.06
2018-09-20T00:15:10.286Z,53.02
2018-09-20T00:17:39.994Z,53.38
2018-09-20T00:20:09.779Z,53.71
2018-09-20T00:22:39.758Z,53.12
2018-09-20T00:25:10.397Z,52.84
2018-09-20T00:27:40.230Z,53.01
2018-09-20T00:30:10.583Z,52.73
2018-09-20T00:32:39.863Z,53.20
2018-09-20T00:35:10.938Z,53.61
2018-09-20T00:37:40.623Z,53.53
2018-09-20T00:40:10.410Z,53.43
2018-09-20T00:42:40.369Z,53.31
2018-09-20T00:45:09.851Z,53.36
2018-09-20T00:47:39.772Z,53.43
2018-09-20T00:50:09.829Z,53.83
2018-09-20T00:52:39.729Z,53.94
2018-09-20T00:55:09.674Z,53.43
2018-09-20T00:57:39.512Z,53.95
2018-09-20T01:00:09.338Z,53.87
2018-09-20T01:02:39.114Z,53.92
2018-09-20T01:05:09.314Z,54.85
2018-09-20T01:07:38.899Z,54.77
2018-09-20T01:10:08.600Z,54.91
2018-09-20T01:12:38.725Z,54.88
2018-09-20T01:15:08.894Z,54.91
2018-09-20T01:17:38.249Z,54.85
2018-09-20T01:20:08.484Z,55.31
2018-09-20T01:22:39.194Z,55.42
2018-09-20T01:25:08.934Z,55.44
2018-09-20T01:27:38.529Z,55.63
2018-09-20T01:30:08.254Z,55.75
2018-09-20T01:32:38.099Z,55.71
2018-09-20T01:35:07.511Z,55.97
2018-09-20T01:37:39.460Z,56.17
2018-09-20T01:40:09.492Z,56.14
2018-09-20T01:42:39.145Z,56.04
2018-09-20T01:45:09.493Z,55.84
2018-09-20T01:47:39.066Z,55.88
2018-09-20T01:50:08.695Z,55.77
2018-09-20T01:52:39.424Z,56.37
2018-09-20T01:55:09.150Z,56.26
2018-09-20T01:57:38.604Z,56.16
2018-09-20T02:00:08.892Z,56.34
2018-09-20T02:02:38.566Z,56.12
2018-09-20T02:05:08.703Z,56.11
2018-09-20T02:07:38.793Z,56.33
2018-09-20T02:10:08.993Z,56.73
2018-09-20T02:12:38.894Z,56.69
2018-09-20T02:15:08.492Z,57.10
2018-09-20T02:17:37.869Z,57.68
2018-09-20T02:20:08.515Z,57.64
2018-09-20T02:22:38.170Z,57.94
2018-09-20T02:25:07.721Z,57.92
2018-09-20T02:27:37.208Z,57.92
2018-09-20T02:30:07.157Z,57.91
2018-09-20T02:32:36.648Z,58.18
2018-09-20T02:35:06.363Z,58.45
2018-09-20T02:37:36.118Z,58.67
2018-09-20T02:40:05.754Z,58.42
2018-09-20T02:42:38.035Z,58.48
2018-09-20T02:45:07.705Z,58.76
2018-09-20T02:47:37.016Z,58.69
2018-09-20T02:50:07.089Z,58.73
2018-09-20T02:52:36.586Z,58.51
2018-09-20T02:55:06.217Z,58.70
2018-09-20T02:57:36.041Z,58.04
2018-09-20T03:00:05.718Z,57.97
2018-09-20T03:02:35.127Z,58.46
2018-09-20T03:05:05.243Z,58.09
2018-09-20T03:07:34.586Z,58.50
2018-09-20T03:10:05.173Z,58.45
2018-09-20T03:12:34.591Z,58.78
2018-09-20T03:15:04.058Z,59.52
2018-09-20T03:17:33.631Z,60.18
2018-09-20T03:20:03.053Z,60.74
2018-09-20T03:22:32.468Z,60.34
2018-09-20T03:25:01.831Z,59.65
2018-09-20T03:27:31.298Z,60.02
2018-09-20T03:30:00.879Z,59.71
2018-09-20T03:32:31.106Z,59.97
2018-09-20T03:35:00.960Z,59.89
2018-09-20T03:37:30.518Z,60.28
2018-09-20T03:40:00.257Z,60.95
2018-09-20T03:42:29.742Z,60.83
2018-09-20T03:44:59.315Z,60.30
2018-09-20T03:47:28.936Z,60.79
2018-09-20T03:49:58.325Z,61.65
2018-09-20T03:52:27.792Z,62.31
2018-09-20T03:54:58.055Z,62.43
2018-09-20T03:57:27.417Z,63.22
2018-09-20T03:59:57.030Z,63.08
2018-09-20T04:02:26.843Z,62.66
2018-09-20T04:04:56.119Z,62.90
2018-09-20T04:07:25.401Z,62.76
2018-09-20T04:09:55.635Z,62.89
2018-09-20T04:12:25.183Z,62.15
2018-09-20T04:14:54.739Z,62.00
2018-09-20T04:17:24.828Z,61.28
2018-09-20T04:19:54.335Z,61.37
2018-09-20T04:22:24.037Z,61.39
2018-09-20T04:24:53.846Z,61.51
2018-09-20T04:27:23.258Z,62.00
2018-09-20T04:29:53.166Z,61.72
2018-09-20T04:32:23.086Z,62.24
2018-09-20T04:34:52.354Z,62.09
2018-09-20T04:37:21.928Z,61.79
2018-09-20T04:39:52.118Z,61.51
2018-09-20T04:42:21.510Z,62.26
2018-09-20T04:44:50.779Z,63.45
2018-09-20T04:47:20.646Z,63.36
2018-09-20T04:49:50.043Z,61.91
2018-09-20T04:52:19.514Z,62.88
2018-09-20T04:54:49.565Z,62.44
2018-09-20T04:57:19.214Z,62.00
2018-09-20T04:59:48.930Z,61.60
2018-09-20T05:02:18.912Z,61.40
2018-09-20T05:04:48.611Z,60.31
2018-09-20T05:07:18.134Z,60.50
2018-09-20T05:09:47.706Z,60.64
2018-09-20T05:12:17.164Z,60.51
2018-09-20T05:14:46.627Z,60.03
2018-09-20T05:17:16.757Z,59.76
2018-09-20T05:19:46.245Z,59.92
2018-09-20T05:22:15.899Z,59.50
2018-09-20T05:24:45.598Z,58.87
2018-09-20T05:27:14.916Z,59.25
2018-09-20T05:29:44.270Z,59.75
2018-09-20T05:32:14.154Z,59.48
2018-09-20T05:34:43.909Z,59.24
2018-09-20T05:37:13.400Z,59.15
2018-09-20T05:39:43.445Z,59.06
2018-09-20T05:42:12.784Z,59.47
2018-09-20T05:44:42.579Z,59.91
2018-09-20T05:47:12.873Z,60.08
2018-09-20T05:49:42.365Z,59.87
2018-09-20T05:52:11.975Z,59.85
2018-09-20T05:54:41.723Z,59.41
2018-09-20T05:57:11.284Z,59.89
2018-09-20T05:59:40.864Z,59.01
2018-09-20T06:02:10.940Z,59.24
2018-09-20T06:04:40.655Z,59.00
2018-09-20T06:07:10.389Z,59.58
2018-09-20T06:09:40.076Z,59.26
2018-09-20T06:12:09.561Z,59.12
2018-09-20T06:14:39.210Z,58.86
2018-09-20T06:17:08.702Z,58.06
2018-09-20T06:19:37.989Z,58.23
2018-09-20T06:22:07.830Z,57.51
2018-09-20T06:24:37.611Z,57.33
2018-09-20T06:27:07.825Z,57.66
2018-09-20T06:29:37.229Z,57.36
2018-09-20T06:32:07.507Z,56.51
2018-09-20T06:34:37.062Z,56.52
2018-09-20T06:37:07.082Z,56.50
2018-09-20T06:39:37.031Z,55.55
2018-09-20T06:42:06.596Z,56.15
2018-09-20T06:44:36.479Z,56.06
2018-09-20T06:47:06.323Z,55.86
2018-09-20T06:49:35.930Z,55.12
2018-09-20T06:52:05.614Z,55.18
2018-09-20T06:54:35.724Z,54.87
2018-09-20T06:57:05.699Z,54.23
2018-09-20T06:59:35.650Z,54.59
2018-09-20T07:02:05.593Z,54.32
2018-09-20T07:04:35.292Z,54.53
2018-09-20T07:07:05.241Z,55.09
2018-09-20T07:09:35.015Z,54.83
2018-09-20T07:12:04.754Z,54.50
2018-09-20T07:14:34.565Z,54.24
2018-09-20T07:17:05.361Z,54.77
2018-09-20T07:19:35.138Z,54.11
2018-09-20T07:22:04.558Z,52.32
2018-09-20T07:24:34.364Z,53.31
2018-09-20T07:27:03.841Z,53.35
2018-09-20T07:29:33.543Z,53.56
2018-09-20T07:32:03.508Z,53.16
2018-09-20T07:34:33.286Z,53.01
2018-09-20T07:37:02.731Z,53.10
2018-09-20T07:39:33.052Z,52.75
2018-09-20T07:42:02.868Z,53.03
2018-09-20T07:44:32.517Z,52.74
2018-09-20T07:47:02.603Z,51.39
2018-09-20T07:49:32.299Z,51.78
2018-09-20T07:52:02.085Z,51.55
2018-09-20T07:54:32.127Z,51.32
2018-09-20T07:57:01.925Z,51.09
2018-09-20T07:59:31.326Z,50.72
2018-09-20T08:02:01.279Z,49.63
2018-09-20T08:04:30.778Z,49.46
2018-09-20T08:07:00.805Z,49.84
2018-09-20T08:09:30.904Z,49.31
2018-09-20T08:12:00.470Z,49.54
2018-09-20T08:14:30.224Z,48.72
2018-09-20T08:17:00.442Z,47.40
2018-09-20T08:19:30.215Z,47.85
2018-09-20T08:21:59.759Z,47.30
2018-09-20T08:24:29.640Z,47.02
2018-09-20T08:26:59.158Z,47.91
2018-09-20T08:29:28.546Z,47.37
2018-09-20T08:31:58.506Z,46.85
2018-09-20T08:34:28.189Z,46.33
2018-09-20T08:36:58.198Z,46.24
2018-09-20T08:39:27.838Z,46.40
2018-09-20T08:41:57.323Z,44.23
2018-09-20T08:44:27.139Z,44.56
2018-09-20T08:46:56.874Z,44.35
2018-09-20T08:49:26.710Z,43.71
2018-09-20T08:51:56.574Z,44.47
2018-09-20T08:54:26.555Z,43.01
2018-09-20T08:56:56.069Z,42.74
2018-09-20T08:59:25.796Z,42.09
2018-09-20T09:01:55.939Z,40.06
2018-09-20T09:04:25.638Z,39.86
2018-09-20T09:06:55.233Z,41.25
2018-09-20T09:09:25.080Z,39.84
2018-09-20T09:11:55.062Z,39.51
2018-09-20T09:14:24.459Z,37.99
2018-09-20T09:16:54.463Z,37.12
2018-09-20T09:19:23.933Z,35.32
2018-09-20T09:21:53.679Z,35.68
2018-09-20T09:24:23.314Z,36.76
2018-09-20T09:26:53.026Z,36.26
2018-09-20T09:29:22.440Z,34.72
2018-09-20T09:31:52.374Z,34.52
2018-09-20T09:34:21.758Z,33.67
2018-09-20T09:36:51.365Z,34.83
2018-09-20T09:39:21.190Z,33.71
2018-09-20T09:41:50.901Z,33.75
2018-09-20T09:44:20.339Z,33.53
2018-09-20T09:46:49.937Z,32.96
2018-09-20T09:49:19.452Z,32.92
2018-09-20T09:51:49.090Z,30.36
2018-09-20T09:54:18.972Z,29.79
2018-09-20T09:56:48.642Z,31.13
2018-09-20T09:59:18.264Z,30.95
2018-09-20T10:01:47.984Z,29.02
2018-09-20T10:04:17.334Z,29.60
2018-09-20T10:06:46.975Z,28.92
2018-09-20T10:09:17.648Z,28.72
2018-09-20T10:11:47.059Z,28.48
2018-09-20T10:14:16.508Z,27.81
2018-09-20T10:16:45.938Z,26.76
2018-09-20T10:19:15.326Z,26.47
2018-09-20T10:21:44.821Z,26.16
2018-09-20T10:24:14.705Z,25.18
2018-09-20T10:26:44.399Z,26.19
2018-09-20T10:29:14.239Z,23.25
2018-09-20T10:31:44.205Z,24.23
2018-09-20T10:34:13.895Z,24.40
2018-09-20T10:36:43.687Z,22.68
2018-09-20T10:39:14.358Z,24.03
2018-09-20T10:41:44.050Z,22.42
2018-09-20T10:44:13.415Z,23.56
2018-09-20T10:46:42.872Z,23.00
2018-09-20T10:49:12.391Z,24.20
2018-09-20T10:51:41.930Z,24.73
2018-09-20T10:54:11.932Z,26.43
2018-09-20T10:56:41.276Z,25.56
2018-09-20T10:59:11.090Z,25.62
2018-09-20T11:01:40.834Z,26.61
2018-09-20T11:04:10.221Z,27.00
2018-09-20T11:06:39.630Z,26.72
2018-09-20T11:09:10.338Z,26.35
2018-09-20T11:11:39.698Z,26.16
2018-09-20T11:14:09.280Z,24.90
2018-09-20T11:16:39.626Z,25.51
2018-09-20T11:19:09.310Z,26.05
2018-09-20T11:21:39.090Z,25.78
2018-09-20T11:24:08.915Z,25.03
2018-09-20T11:26:38.768Z,25.74
2018-09-20T11:29:08.349Z,25.05
2018-09-20T11:31:38.150Z,24.69
2018-09-20T11:34:08.085Z,25.81
2018-09-20T11:36:37.494Z,25.39
2018-09-20T11:39:09.876Z,24.74
2018-09-20T11:41:39.465Z,24.67
2018-09-20T11:44:09.280Z,24.45
2018-09-20T11:46:39.163Z,25.08
2018-09-20T11:49:14.849Z,24.53
2018-09-20T11:51:44.793Z,24.13
2018-09-20T11:54:14.183Z,24.54
2018-09-20T11:56:43.777Z,24.50
2018-09-20T11:59:13.758Z,24.23
2018-09-20T12:01:43.382Z,24.51
2018-09-20T12:04:12.610Z,23.95
2018-09-20T12:06:42.548Z,24.51
2018-09-20T12:09:12.063Z,24.74
2018-09-20T12:11:41.911Z,23.67
2018-09-20T12:14:11.549Z,22.73
2018-09-20T12:16:41.152Z,24.33
2018-09-20T12:19:10.862Z,24.58
2018-09-20T12:21:40.754Z,24.01
2018-09-20T12:24:10.491Z,23.49
2018-09-20T12:26:40.209Z,24.03
2018-09-20T12:29:10.126Z,23.60
2018-09-20T12:31:39.881Z,23.31
2018-09-20T12:34:09.561Z,21.89
2018-09-20T12:36:39.469Z,22.04
2018-09-20T12:39:11.968Z,22.70
2018-09-20T12:41:42.365Z,22.11
2018-09-20T12:44:11.997Z,21.96
2018-09-20T12:46:41.565Z,21.79
2018-09-20T12:49:11.579Z,22.05
2018-09-20T12:51:41.075Z,20.68
2018-09-20T12:54:10.970Z,20.67
2018-09-20T12:56:40.656Z,19.88
2018-09-20T12:59:10.015Z,19.67
2018-09-20T13:01:39.818Z,20.53
2018-09-20T13:04:09.903Z,19.83
2018-09-20T13:06:39.368Z,19.59
2018-09-20T13:09:10.173Z,19.71
2018-09-20T13:11:40.368Z,20.21
2018-09-20T13:14:10.037Z,20.51
2018-09-20T13:16:39.528Z,19.61
2018-09-20T13:19:09.570Z,18.48
2018-09-20T13:21:39.160Z,19.05
2018-09-20T13:24:08.526Z,18.66
2018-09-20T13:26:38.543Z,19.31
2018-09-20T13:29:07.979Z,18.84
2018-09-20T13:31:37.629Z,19.71
2018-09-20T13:34:07.237Z,19.09
2018-09-20T13:36:37.127Z,19.33
2018-09-20T13:39:10.051Z,18.02
2018-09-20T13:41:39.513Z,18.25
2018-09-20T13:44:09.490Z,18.50
2018-09-20T13:46:39.334Z,18.58
2018-09-20T13:49:08.749Z,18.49
2018-09-20T13:51:38.164Z,18.57
2018-09-20T13:54:07.881Z,18.76
2018-09-20T13:56:37.845Z,19.17
2018-09-20T13:59:07.597Z,18.42
2018-09-20T14:01:37.423Z,18.88
2018-09-20T14:04:07.026Z,17.86
2018-09-20T14:06:36.564Z,19.00
2018-09-20T14:09:09.994Z,18.86
2018-09-20T14:11:40.193Z,18.87
2018-09-20T14:14:09.846Z,18.90
2018-09-20T14:16:39.549Z,19.15
2018-09-20T14:19:09.185Z,18.30
2018-09-20T14:21:38.636Z,17.78
2018-09-20T14:24:08.894Z,18.33
2018-09-20T14:26:38.803Z,19.14
2018-09-20T14:29:08.335Z,19.30
2018-09-20T14:31:37.759Z,19.24
2018-09-20T14:34:08.082Z,20.30
2018-09-20T14:36:37.683Z,19.53
2018-09-20T14:39:09.261Z,20.55
2018-09-20T14:41:39.341Z,19.51
2018-09-20T14:44:08.891Z,19.96
2018-09-20T14:46:38.487Z,19.98
2018-09-20T14:49:08.245Z,19.92
2018-09-20T14:51:37.775Z,21.16
2018-09-20T14:54:08.018Z,20.71
2018-09-20T14:56:37.810Z,21.59
2018-09-20T14:59:07.190Z,23.22
2018-09-20T15:01:36.838Z,22.90
2018-09-20T15:04:06.348Z,23.90
2018-09-20T15:06:36.161Z,23.22
2018-09-20T15:09:09.407Z,24.31
2018-09-20T15:11:38.944Z,24.73
2018-09-20T15:14:08.457Z,25.15
2018-09-20T15:16:38.378Z,24.98
2018-09-20T15:19:08.074Z,25.39
2018-09-20T15:21:37.730Z,25.39
2018-09-20T15:24:07.758Z,26.32
2018-09-20T15:26:37.178Z,26.28
2018-09-20T15:29:06.816Z,26.28
2018-09-20T15:31:36.455Z,26.55
2018-09-20T15:34:06.149Z,26.97
2018-09-20T15:36:37.328Z,26.61
2018-09-20T15:39:09.843Z,27.34
2018-09-20T15:41:39.688Z,27.53
2018-09-20T15:44:09.931Z,28.02
2018-09-20T15:46:39.504Z,28.76
2018-09-20T15:49:09.535Z,28.61
2018-09-20T15:51:38.970Z,29.33
2018-09-20T15:54:08.653Z,29.63
2018-09-20T15:56:38.456Z,29.03
2018-09-20T15:59:07.961Z,29.26
2018-09-20T16:01:37.670Z,29.60
2018-09-20T16:04:07.783Z,29.63
2018-09-20T16:06:37.201Z,29.81
2018-09-20T16:09:09.073Z,30.44
2018-09-20T16:11:38.869Z,30.43
2018-09-20T16:14:08.968Z,30.83
2018-09-20T16:16:38.613Z,30.89
2018-09-20T16:19:08.215Z,30.89
2018-09-20T16:21:37.943Z,30.84
2018-09-20T16:24:07.907Z,30.88
2018-09-20T16:26:37.632Z,31.39
2018-09-20T16:29:23.683Z,32.11
2018-09-20T16:32:23.081Z,31.48
2018-09-20T16:35:17.185Z,31.25
2018-09-20T16:38:03.901Z,31.78
2018-09-20T16:40:36.335Z,31.63
2018-09-20T16:43:06.240Z,31.94
2018-09-20T16:45:38.933Z,32.55
2018-09-20T16:48:08.802Z,32.36
2018-09-20T16:50:38.519Z,32.65
2018-09-20T16:53:08.488Z,33.24
2018-09-20T16:55:37.989Z,33.19
2018-09-20T16:58:07.451Z,33.59
2018-09-20T17:00:36.896Z,33.74
2018-09-20T17:03:06.773Z,33.29
2018-09-20T17:05:36.320Z,33.49
2018-09-20T17:08:06.144Z,33.09
2018-09-20T17:10:35.628Z,33.85
2018-09-20T17:13:05.089Z,34.15
2018-09-20T17:15:34.436Z,34.33
2018-09-20T17:18:04.161Z,34.55
2018-09-20T17:20:33.610Z,34.40
2018-09-20T17:23:03.534Z,34.59
2018-09-20T17:25:32.896Z,34.52
2018-09-20T17:28:02.399Z,34.70
2018-09-20T17:30:32.191Z,34.59
2018-09-20T17:33:01.553Z,35.27
2018-09-20T17:35:31.860Z,34.76
2018-09-20T17:38:02.899Z,35.17
2018-09-20T17:40:34.050Z,35.34
2018-09-20T17:43:06.692Z,35.01
2018-09-20T17:45:35.985Z,34.82
2018-09-20T17:48:06.539Z,34.33
2018-09-20T17:50:38.291Z,35.61
2018-09-20T17:53:08.907Z,35.04
2018-09-20T17:55:39.202Z,35.00
2018-09-20T17:58:09.318Z,35.22
2018-09-20T18:00:38.839Z,35.14
2018-09-20T18:03:08.609Z,35.09
2018-09-20T18:05:38.383Z,35.35
2018-09-20T18:08:07.757Z,35.34
2018-09-20T18:10:37.873Z,35.63
2018-09-20T18:13:07.884Z,36.01
2018-09-20T18:15:37.611Z,35.45
2018-09-20T18:18:07.976Z,35.93
2018-09-20T18:20:37.332Z,35.97
2018-09-20T18:23:06.590Z,36.50
2018-09-20T18:25:36.268Z,36.30
2018-09-20T18:28:05.829Z,36.28
2018-09-20T18:30:35.358Z,36.71
2018-09-20T18:33:05.299Z,36.80
2018-09-20T18:35:34.878Z,36.80
2018-09-20T18:38:04.663Z,37.21
2018-09-20T18:40:34.484Z,37.30
2018-09-20T18:43:04.036Z,37.27
2018-09-20T18:45:33.443Z,37.80
2018-09-20T18:48:03.155Z,37.56
2018-09-20T18:50:32.623Z,38.11
2018-09-20T18:53:02.238Z,38.68
2018-09-20T18:55:32.129Z,38.21
2018-09-20T18:58:01.773Z,38.29
2018-09-20T19:00:31.269Z,38.28
2018-09-20T19:03:01.413Z,38.60
2018-09-20T19:05:30.806Z,38.54
2018-09-20T19:08:00.095Z,38.16
2018-09-20T19:10:29.929Z,38.04
2018-09-20T19:12:59.577Z,38.20
2018-09-20T19:15:29.069Z,38.63
2018-09-20T19:17:59.025Z,38.19
2018-09-20T19:20:28.559Z,38.19
2018-09-20T19:22:58.169Z,38.40
2018-09-20T19:25:28.245Z,38.23
2018-09-20T19:27:58.149Z,38.07
2018-09-20T19:30:27.966Z,38.45
2018-09-20T19:32:57.742Z,38.95
2018-09-20T19:35:27.677Z,39.04
2018-09-20T19:37:57.353Z,39.26
2018-09-20T19:40:27.112Z,39.35
2018-09-20T19:42:56.584Z,39.36
2018-09-20T19:45:26.130Z,39.74
2018-09-20T19:47:56.383Z,39.81
2018-09-20T19:50:26.330Z,40.04
2018-09-20T19:52:55.763Z,40.13
2018-09-20T19:55:25.561Z,40.16
2018-09-20T19:57:55.402Z,40.16
2018-09-20T20:00:25.197Z,40.40
2018-09-20T20:02:54.986Z,40.19
2018-09-20T20:05:24.515Z,40.38
2018-09-20T20:07:53.990Z,41.04
2018-09-20T20:10:24.123Z,41.06
2018-09-20T20:12:54.054Z,41.27
2018-09-20T20:15:23.921Z,41.49
2018-09-20T20:17:53.859Z,41.76
2018-09-20T20:20:23.554Z,41.61
2018-09-20T20:22:53.143Z,41.85
2018-09-20T20:25:23.092Z,42.42
2018-09-20T20:27:52.425Z,42.72
2018-09-20T20:30:21.832Z,42.53
2018-09-20T20:32:51.218Z,41.17
2018-09-20T20:35:20.565Z,41.13
2018-09-20T20:37:49.979Z,41.16
2018-09-20T20:40:19.730Z,41.43
2018-09-20T20:42:49.164Z,41.17
2018-09-20T20:45:18.610Z,41.33
2018-09-20T20:47:48.394Z,41.22
2018-09-20T21:07:38.441Z,41.52
2018-09-20T21:10:08.266Z,40.77
2018-09-20T21:12:37.741Z,41.07
2018-09-20T21:15:07.674Z,41.23
2018-09-20T21:17:37.781Z,41.15
2018-09-20T21:20:07.165Z,41.16
2018-09-20T21:22:36.691Z,41.02
2018-09-20T21:25:06.616Z,40.71
2018-09-20T21:27:36.229Z,40.76
2018-09-20T21:30:06.162Z,40.98
2018-09-20T21:32:35.789Z,40.52
2018-09-20T21:35:05.505Z,40.16
2018-09-20T21:37:34.827Z,40.63
2018-09-20T21:40:04.493Z,40.47
2018-09-20T21:42:33.799Z,40.79
2018-09-20T21:45:03.489Z,40.85
2018-09-20T21:47:32.938Z,40.72
2018-09-20T22:07:24.798Z,41.62
2018-09-20T22:09:54.455Z,42.06
2018-09-20T22:12:24.150Z,42.34
2018-09-20T22:14:53.847Z,42.30
2018-09-20T22:17:23.290Z,42.49
2018-09-20T22:19:53.096Z,41.77
2018-09-20T22:22:22.471Z,41.86
2018-09-20T22:42:13.787Z,43.25
2018-09-20T22:44:43.414Z,42.92
2018-09-20T22:47:13.006Z,43.20
2018-09-20T22:49:42.776Z,42.95
2018-09-20T22:52:12.668Z,43.16
2018-09-20T22:54:41.925Z,43.41
2018-09-20T22:57:12.223Z,43.41
2018-09-20T22:59:41.748Z,43.64
2018-09-20T23:19:34.238Z,44.62
2018-09-20T23:22:03.876Z,44.88
2018-09-20T23:24:33.154Z,45.07
2018-09-20T23:27:02.818Z,45.23
2018-09-20T23:29:32.147Z,44.85
2018-09-20T23:32:01.588Z,44.89
2018-09-20T23:34:31.322Z,45.12
2018-09-20T23:37:00.855Z,45.74
2018-09-20T23:39:30.400Z,45.37
2018-09-20T23:42:00.343Z,45.62
2018-09-20T23:44:29.749Z,45.57
2018-09-20T23:46:59.185Z,45.70
2018-09-20T23:49:29.448Z,46.02
2018-09-20T23:51:59.065Z,46.02
2018-09-20T23:54:28.985Z,46.32
2018-09-20T23:56:58.824Z,46.67
2018-09-20T23:59:28.188Z,46.75
